Flight Track Log - Related Links

Times and Time Zones

All times are in EDT time to prevent confusion due to time zone crossing. See the FLG3785 flight status page for this flight to view local times or setup timezone preferences in your user account.

Time Position Orientation Groundspeed Altitude Reporting Facility
EDT Latitude Longitude Course Direction KTS MPH feet Rate Location/Type
Tue 11:32:12 AM 41.4194 -81.8375 261° West 164 189 1,800  Level Cleveland Center
Tue 11:32:42 AM 41.4464 -81.8408 355° North 189 217 2,800 2,133 Climbing Cleveland Center
Tue 11:32:57 AM 41.4631 -81.8439 352° North 229 264 3,400 2,066 Climbing Cleveland Center
Tue 11:33:43 AM 41.4961 -81.8861 316° Northwest 252 290 4,900 2,300 Climbing Cleveland Center
Tue 11:34:57 AM 41.5342 -82.0033 293° West 293 337 8,000 2,552 Climbing Cleveland Center
Tue 11:35:00 AM 41.3183 -82.4268 252° West  Level FlightAware Approximate
Tue 11:35:57 AM 41.5286 -82.1086 266° West 310 357 10,600  Level Cleveland Center
Tue 11:36:00 AM 41.3000 -82.5713 270° West  Level FlightAware Approximate
Tue 11:36:57 AM 41.5000 -82.2217 251° West 310 357 11,800  Level Cleveland Center
Tue 11:37:00 AM 41.2757 -82.7153 261° West  Level FlightAware Approximate
Tue 11:37:57 AM 41.4981 -82.3547 269° West 348 400 13,900  Level Cleveland Center
Tue 11:38:57 AM 41.4939 -82.4903 268° West 366 421 15,600 1,650 Climbing Cleveland Center
Tue 11:39:57 AM 41.4892 -82.6317 267° West 372 428 17,200 1,400 Climbing Cleveland Center
Tue 11:40:57 AM 41.4844 -82.7728 267° West 379 436 18,400 1,250 Climbing Cleveland Center
Tue 11:41:57 AM 41.4794 -82.9306 268° West 390 449 19,700 1,200 Climbing Cleveland Center
Tue 11:42:57 AM 41.4719 -83.0800 266° West 390 449 20,800 1,000 Climbing Cleveland Center
Tue 11:43:57 AM 41.4669 -83.2156 267° West 402 463 21,700 900 Climbing Cleveland Center
Tue 11:44:57 AM 41.4592 -83.3650 266° West 407 468 22,600 850 Climbing Cleveland Center
Tue 11:45:57 AM 41.4533 -83.5200 267° West 412 474 23,400 750 Climbing Cleveland Center
Tue 11:46:57 AM 41.4492 -83.6778 268° West 422 486 24,100 750 Climbing Cleveland Center
Tue 11:47:57 AM 41.4572 -83.8361 274° West 427 491 24,900 810 Climbing Cleveland Center
Tue 11:50:17 AM 41.4742 -84.2050 274° West 432 497 26,800 806 Climbing Chicago Center
Tue 11:51:18 AM 41.4800 -84.3644 273° West 432 497 27,600 585 Climbing Chicago Center
Tue 11:52:20 AM 41.4847 -84.5244 272° West 433 498 28,000 194 Climbing Chicago Center
Tue 11:53:22 AM 41.4900 -84.6911 272° West 448 516 28,000  Level Chicago Center
Tue 11:54:24 AM 41.4969 -84.8956 273° West 458 527 28,000  Level Chicago Center
Tue 11:55:26 AM 41.5022 -85.0675 272° West 463 533 28,000  Level Chicago Center
Tue 11:56:28 AM 41.5056 -85.2431 272° West 463 533 28,000  Level Chicago Center
Tue 11:57:30 AM 41.5094 -85.4147 272° West 461 531 28,000  Level Chicago Center
Tue 11:58:32 AM 41.5150 -85.5853 273° West 449 517 28,000  Level Chicago Center
Tue 11:59:34 AM 41.5183 -85.7536 272° West 449 517 28,000  Level Chicago Center
Tue 12:00:36 PM 41.5222 -85.9194 272° West 445 512 28,000  Level Chicago Center
Tue 12:01:37 PM 41.5583 -86.0736 287° West 449 517 28,000  Level Chicago Center
Tue 12:02:39 PM 41.6447 -86.1908 315° West 444 511 28,000  Level Chicago Center
Tue 12:03:41 PM 41.7475 -86.3336 314° West 442 509 28,000  Level Chicago Center
Tue 12:04:43 PM 41.8350 -86.4542 314° West 450 518 28,000  Level Chicago Center
Tue 12:05:45 PM 41.9231 -86.5764 314° West 453 521 28,000  Level Chicago Center
Tue 12:06:47 PM 42.0197 -86.7100 314° West 460 529 28,000  Level Chicago Center
Tue 12:07:49 PM 42.1072 -86.8325 314° West 459 528 28,000  Level Chicago Center
Tue 12:08:51 PM 42.1953 -86.9564 314° West 461 531 28,000  Level Chicago Center
Tue 12:09:53 PM 42.2808 -87.0775 314° West 453 521 28,000  Level Chicago Center
Tue 12:10:55 PM 42.3856 -87.2239 314° West 456 525 28,000  Level Chicago Center
Tue 12:11:57 PM 42.4719 -87.3486 313° West 458 527 28,000  Level Chicago Center
Tue 12:12:59 PM 42.5594 -87.4739 314° West 461 531 28,000  Level Chicago Center
Tue 12:14:01 PM 42.6553 -87.6114 313° West 466 536 28,000 145 Level Chicago Center
Tue 12:15:03 PM 42.7444 -87.7400 313° West 467 537 28,300 435 Climbing Chicago Center
Tue 12:16:05 PM 42.8331 -87.8694 313° West 466 536 28,900 339 Climbing Chicago Center
Tue 12:17:07 PM 42.9200 -87.9978 313° West 462 532 29,000 48 Climbing Chicago Center
Tue 12:18:09 PM 43.0103 -88.1292 313° West 470 541 29,000  Level Chicago Center
Tue 12:19:11 PM 43.1161 -88.2836 313° West 474 545 29,000 145 Level Chicago Center
Tue 12:20:13 PM 43.2003 -88.4278 309° West 479 551 29,300 435 Climbing Chicago Center
Tue 12:21:15 PM 43.2833 -88.5694 309° West 472 543 29,900 339 Climbing Chicago Center
Tue 12:22:17 PM 43.3672 -88.7131 309° West 470 541 30,000 48 Climbing Chicago Center
Tue 12:23:19 PM 43.4508 -88.8575 309° West 476 548 30,000  Level Chicago Center
Tue 12:24:21 PM 43.5336 -89.0011 309° West 476 548 30,000  Level Chicago Center
Tue 12:25:23 PM 43.6164 -89.1439 309° West 475 547 30,000  Level Chicago Center
Tue 12:26:13 PM 43.6847 -89.2636 308° West 475 547 30,000  Level Minneapolis Center
Tue 12:27:15 PM 43.7653 -89.4083 308° West 474 545 30,000  Level Minneapolis Center
Tue 12:28:29 PM 43.8619 -89.5761 309° West 478 550 30,000  Level Minneapolis Center
Tue 12:29:32 PM 43.9569 -89.7461 308° West 479 551 30,000  Level Minneapolis Center
Tue 12:30:34 PM 44.0383 -89.8919 308° West 479 551 30,000  Level Minneapolis Center
Tue 12:31:36 PM 44.1186 -90.0381 307° West 477 549 30,000  Level Minneapolis Center
Tue 12:32:38 PM 44.1878 -90.2303 297° West 474 545 30,000  Level Minneapolis Center
Tue 12:33:40 PM 44.2447 -90.3931 296° West 470 541 30,000  Level Minneapolis Center
Tue 12:34:42 PM 44.3011 -90.5592 295° West 471 542 30,000 -97 Level Minneapolis Center
Tue 12:35:44 PM 44.3564 -90.7222 295° West 465 535 29,800 -968 Descending Minneapolis Center
Tue 12:36:46 PM 44.4119 -90.8844 296° West 462 532 28,000 -1,984 Descending Minneapolis Center
Tue 12:37:48 PM 44.4708 -91.0581 295° West 456 525 25,700 -2,074 Descending Minneapolis Center
Tue 12:39:02 PM 44.5289 -91.2306 295° West 435 501 23,300 -1,897 Descending Minneapolis Center
Tue 12:40:04 PM 44.5753 -91.3703 295° West 415 478 21,400 -2,032 Descending Minneapolis Center
Tue 12:41:06 PM 44.6292 -91.5367 295° West 400 460 19,100 -1,935 Descending Minneapolis Center
Tue 12:42:08 PM 44.6731 -91.6703 295° West 388 447 17,400 -1,694 Descending Minneapolis Center
Tue 12:43:10 PM 44.7156 -91.7975 295° West 372 428 15,600 -1,728 Descending Minneapolis Center
Tue 12:44:13 PM 44.7542 -91.9175 294° West 348 400 13,800 -1,577 Descending Minneapolis Center
Tue 12:45:27 PM 44.8014 -92.0614 295° West 340 391 12,000 -1,544 Descending Minneapolis Center
Tue 12:46:29 PM 44.8467 -92.2019 294° West 332 382 10,300 -968 Descending Minneapolis Center
Tue 12:47:31 PM 44.8728 -92.3358 285° West 332 382 10,000 -145 Descending Minneapolis Center
Tue 12:48:33 PM 44.8267 -92.4450 239° Southwest 325 374 10,000 -435 Level Minneapolis Center
Tue 12:49:35 PM 44.7828 -92.5381 236° Southwest 292 336 9,100 -484 Descending Minneapolis Center
Tue 12:50:37 PM 44.7394 -92.6308 237° Southwest 268 308 9,000 -339 Descending Minneapolis Center
Tue 12:51:39 PM 44.7356 -92.7317 267° West 257 296 8,400 -726 Descending Minneapolis Center
Tue 12:52:41 PM 44.7347 -92.8328 269° West 243 280 7,500 -919 Descending Minneapolis Center
Tue 12:53:43 PM 44.7497 -92.9186 284° West 235 270 6,500 -1,403 Descending Minneapolis Center
Tue 12:54:45 PM 44.7853 -92.9975 302° West 222 255 4,600 -1,500 Descending Minneapolis Center
Tue 12:55:47 PM 44.8081 -93.0506 301° West 212 244 3,400 -1,161 Descending Minneapolis Center

Login

Don't have an account? Register now (free) for customized features, flight alerts, and more!